createdAt,value
2019-02-07T00:01:23.142Z,3.60
2019-02-07T00:04:13.635Z,4.00
2019-02-07T00:07:04.193Z,3.80
2019-02-07T00:09:55.151Z,3.30
2019-02-07T00:12:45.787Z,3.00
2019-02-07T00:15:36.762Z,3.87
2019-02-07T00:18:27.371Z,2.50
2019-02-07T00:21:18.176Z,3.20
2019-02-07T00:24:08.378Z,3.43
2019-02-07T00:26:58.466Z,6.10
2019-02-07T00:29:48.758Z,4.13
2019-02-07T00:32:39.155Z,5.90
2019-02-07T00:35:29.639Z,3.70
2019-02-07T00:38:20.209Z,3.40
2019-02-07T00:41:10.533Z,3.40
2019-02-07T00:44:00.958Z,4.10
2019-02-07T00:46:51.580Z,5.43
2019-02-07T00:49:41.990Z,5.83
2019-02-07T00:52:32.149Z,4.20
2019-02-07T00:55:22.472Z,4.70
2019-02-07T00:58:12.907Z,5.00
2019-02-07T01:01:03.042Z,6.93
2019-02-07T01:03:53.590Z,5.60
2019-02-07T01:06:43.711Z,6.30
2019-02-07T01:09:34.262Z,6.10
2019-02-07T01:12:24.859Z,5.07
2019-02-07T01:15:16.098Z,4.13
2019-02-07T01:18:06.465Z,5.53
2019-02-07T01:20:57.167Z,5.10
2019-02-07T01:23:47.586Z,4.40
2019-02-07T01:26:37.788Z,3.47
2019-02-07T01:29:28.241Z,3.43
2019-02-07T01:32:18.761Z,2.63
2019-02-07T01:35:09.183Z,4.43
2019-02-07T01:37:59.718Z,3.13
2019-02-07T01:40:50.105Z,3.17
2019-02-07T01:43:41.586Z,2.97
2019-02-07T01:46:32.537Z,2.43
2019-02-07T01:49:22.904Z,3.93
2019-02-07T01:52:13.436Z,2.67
2019-02-07T01:55:03.675Z,3.40
2019-02-07T01:57:54.215Z,5.60
2019-02-07T02:00:44.867Z,2.60
2019-02-07T02:03:35.694Z,4.87
2019-02-07T02:06:26.207Z,3.60
2019-02-07T02:09:17.046Z,3.20
2019-02-07T02:12:07.669Z,4.13
2019-02-07T02:14:58.348Z,4.20
2019-02-07T02:17:49.151Z,3.63
2019-02-07T02:20:39.636Z,4.80
2019-02-07T02:23:30.428Z,5.83
2019-02-07T02:26:21.044Z,5.27
2019-02-07T02:29:11.643Z,6.63
2019-02-07T02:32:01.994Z,9.27
2019-02-07T02:34:52.359Z,4.30
2019-02-07T02:37:42.828Z,4.93
2019-02-07T02:40:33.353Z,3.63
2019-02-07T02:43:23.777Z,4.23
2019-02-07T02:46:14.284Z,8.23
2019-02-07T02:49:04.691Z,4.70
2019-02-07T02:51:55.167Z,4.10
2019-02-07T02:54:48.742Z,4.23
2019-02-07T02:57:39.074Z,4.33
2019-02-07T03:00:45.466Z,7.47
2019-02-07T03:04:00.946Z,6.87
2019-02-07T03:07:10.144Z,7.17
2019-02-07T03:10:19.688Z,5.70
2019-02-07T03:13:25.127Z,7.13
2019-02-07T03:16:46.630Z,4.90
2019-02-07T03:19:55.951Z,11.57
2019-02-07T03:23:20.943Z,4.80
2019-02-07T03:26:35.924Z,7.40
2019-02-07T03:29:44.278Z,6.93
2019-02-07T03:33:00.600Z,8.93
2019-02-07T03:36:07.924Z,7.67
2019-02-07T03:39:15.804Z,7.00
2019-02-07T03:42:23.907Z,5.13
2019-02-07T03:45:31.767Z,7.97
2019-02-07T03:48:35.884Z,8.40
2019-02-07T03:51:45.035Z,6.30
2019-02-07T03:54:51.044Z,9.60
2019-02-07T03:58:03.491Z,6.77
2019-02-07T04:01:03.147Z,6.80
2019-02-07T04:04:06.274Z,5.10
2019-02-07T04:07:08.729Z,7.03
2019-02-07T04:10:20.771Z,8.03
2019-02-07T04:13:24.556Z,5.73
2019-02-07T04:16:21.193Z,7.43
2019-02-07T04:19:48.868Z,8.33
2019-02-07T04:23:00.969Z,6.87
2019-02-07T04:26:16.025Z,7.03
2019-02-07T04:29:30.817Z,5.67
2019-02-07T04:32:39.843Z,6.20
2019-02-07T04:35:43.583Z,7.37
2019-02-07T04:38:49.351Z,8.17
2019-02-07T04:41:50.823Z,7.27
2019-02-07T04:45:12.107Z,6.27
2019-02-07T04:48:26.973Z,7.63
2019-02-07T04:51:39.279Z,4.87
2019-02-07T04:54:47.002Z,11.20
2019-02-07T04:58:08.753Z,9.13
2019-02-07T05:01:23.310Z,7.57
2019-02-07T05:04:32.310Z,6.60
2019-02-07T05:07:44.852Z,7.93
2019-02-07T05:10:52.556Z,8.07
2019-02-07T05:14:00.637Z,5.13
2019-02-07T05:17:08.518Z,6.60
2019-02-07T05:20:10.309Z,6.53
2019-02-07T05:23:31.897Z,9.73
2019-02-07T05:26:40.763Z,10.43
2019-02-07T05:29:56.183Z,7.30
2019-02-07T05:33:04.163Z,6.77
2019-02-07T05:36:20.253Z,6.63
2019-02-07T05:39:28.419Z,7.53
2019-02-07T05:42:41.600Z,8.70
2019-02-07T05:45:48.450Z,6.90
2019-02-07T05:48:54.848Z,10.57
2019-02-07T05:51:54.845Z,7.37
2019-02-07T05:55:05.056Z,8.13
2019-02-07T05:58:05.219Z,6.17
2019-02-07T06:01:27.903Z,5.37
2019-02-07T06:04:43.092Z,9.73
2019-02-07T06:08:04.857Z,6.93
2019-02-07T06:11:20.668Z,8.47
2019-02-07T06:14:29.088Z,10.87
2019-02-07T06:17:50.931Z,8.17
2019-02-07T06:20:59.200Z,8.70
2019-02-07T06:24:08.364Z,8.20
2019-02-07T06:27:21.669Z,6.77
2019-02-07T06:30:44.522Z,7.70
2019-02-07T06:33:59.624Z,6.20
2019-02-07T06:37:18.219Z,9.10
2019-02-07T06:40:30.632Z,10.00
2019-02-07T06:43:27.530Z,7.57
2019-02-07T06:46:35.854Z,7.37
2019-02-07T06:49:40.987Z,7.33
2019-02-07T06:52:48.955Z,7.10
2019-02-07T06:56:07.398Z,5.83
2019-02-07T06:59:19.413Z,6.63
2019-02-07T07:02:31.289Z,7.77
2019-02-07T07:05:43.683Z,7.10
2019-02-07T07:09:11.171Z,7.50
2019-02-07T07:12:19.562Z,6.00
2019-02-07T07:15:35.453Z,7.57
2019-02-07T07:18:47.691Z,8.47
2019-02-07T07:21:49.959Z,7.73
2019-02-07T07:24:58.247Z,7.40
2019-02-07T07:28:06.085Z,10.17
2019-02-07T07:31:33.457Z,7.30
2019-02-07T07:34:48.028Z,9.53
2019-02-07T07:37:57.102Z,8.50
2019-02-07T07:41:12.547Z,8.47
2019-02-07T07:44:11.994Z,6.53
2019-02-07T07:47:20.844Z,8.17
2019-02-07T07:50:37.095Z,7.37
2019-02-07T07:53:58.777Z,7.93
2019-02-07T07:57:20.259Z,9.53
2019-02-07T08:00:28.856Z,8.30
2019-02-07T08:03:26.423Z,8.67
2019-02-07T08:06:40.193Z,9.37
2019-02-07T08:10:01.377Z,9.00
2019-02-07T08:13:00.684Z,8.80
2019-02-07T08:16:08.350Z,9.73
2019-02-07T08:19:24.498Z,8.47
2019-02-07T08:22:32.635Z,7.03
2019-02-07T08:25:47.640Z,9.87
2019-02-07T08:28:49.686Z,8.70
2019-02-07T08:32:04.986Z,8.47
2019-02-07T08:35:14.712Z,8.80
2019-02-07T08:38:20.416Z,7.97
2019-02-07T08:41:26.122Z,7.37
2019-02-07T08:44:34.414Z,9.23
2019-02-07T08:47:38.235Z,8.77
2019-02-07T08:51:02.720Z,9.17
2019-02-07T08:54:06.629Z,8.73
2019-02-07T08:57:21.818Z,7.20
2019-02-07T09:00:46.277Z,8.67
2019-02-07T09:03:55.963Z,6.30
2019-02-07T09:07:11.313Z,6.77
2019-02-07T09:10:24.895Z,5.97
2019-02-07T09:13:46.328Z,5.30
2019-02-07T09:16:54.116Z,8.77
2019-02-07T09:20:02.000Z,8.60
2019-02-07T09:23:13.969Z,6.50
2019-02-07T09:26:22.263Z,6.57
2019-02-07T09:29:23.626Z,6.60
2019-02-07T09:32:51.436Z,10.60
2019-02-07T09:36:05.606Z,8.07
2019-02-07T09:39:27.362Z,7.63
2019-02-07T09:42:33.439Z,7.50
2019-02-07T09:45:42.994Z,6.40
2019-02-07T09:48:51.995Z,8.57
2019-02-07T09:51:58.522Z,8.60
2019-02-07T09:55:13.758Z,8.60
2019-02-07T09:58:29.011Z,5.70
2019-02-07T10:01:34.408Z,8.87
2019-02-07T10:04:44.196Z,6.73
2019-02-07T10:08:03.610Z,9.67
2019-02-07T10:11:10.662Z,10.60
2019-02-07T10:14:32.364Z,10.13
2019-02-07T10:17:47.674Z,7.83
2019-02-07T10:20:56.906Z,7.77
2019-02-07T10:24:09.302Z,6.93
2019-02-07T10:27:17.289Z,8.37
2019-02-07T10:30:41.865Z,7.90
2019-02-07T10:34:05.743Z,8.07
2019-02-07T10:37:15.141Z,7.30
2019-02-07T10:40:25.119Z,7.83
2019-02-07T10:43:33.465Z,9.33
2019-02-07T10:46:52.119Z,7.83
2019-02-07T10:50:10.893Z,8.57
2019-02-07T10:53:14.734Z,7.10
2019-02-07T10:56:23.134Z,7.20
2019-02-07T10:59:35.088Z,7.70
2019-02-07T11:02:42.654Z,6.90
2019-02-07T11:05:54.812Z,8.50
2019-02-07T11:08:58.354Z,6.27
2019-02-07T11:12:06.159Z,6.43
2019-02-07T11:15:15.789Z,6.80
2019-02-07T11:18:31.222Z,8.43
2019-02-07T11:21:52.587Z,6.27
2019-02-07T11:25:16.591Z,6.53
2019-02-07T11:28:35.012Z,7.10
2019-02-07T11:31:50.227Z,7.60
2019-02-07T11:34:51.873Z,8.80
2019-02-07T11:38:00.046Z,7.37
2019-02-07T11:40:58.954Z,6.53
2019-02-07T11:43:57.165Z,6.10
2019-02-07T11:47:15.804Z,7.07
2019-02-07T11:50:32.657Z,7.23
2019-02-07T11:53:48.341Z,8.63
2019-02-07T11:56:58.449Z,6.87
2019-02-07T12:00:05.393Z,5.40
2019-02-07T12:03:13.230Z,5.73
2019-02-07T12:06:25.548Z,6.77
2019-02-07T12:09:35.747Z,6.17
2019-02-07T12:13:03.404Z,7.17
2019-02-07T12:16:22.019Z,7.77
2019-02-07T12:19:31.064Z,8.90
2019-02-07T12:22:41.779Z,8.17
2019-02-07T12:25:57.347Z,8.40
2019-02-07T12:29:04.849Z,8.47
2019-02-07T12:32:22.075Z,7.50
2019-02-07T12:35:41.219Z,12.43
2019-02-07T12:39:05.716Z,9.03
2019-02-07T12:42:07.675Z,9.50
2019-02-07T12:45:15.753Z,10.30
2019-02-07T12:48:19.331Z,10.83
2019-02-07T12:51:30.463Z,6.70
2019-02-07T12:54:39.485Z,7.87
2019-02-07T12:57:47.249Z,7.50
2019-02-07T13:00:59.993Z,7.37
2019-02-07T13:04:09.197Z,7.23
2019-02-07T13:07:17.249Z,7.37
2019-02-07T13:10:33.718Z,8.37
2019-02-07T13:13:45.749Z,8.23
2019-02-07T13:17:13.228Z,8.07
2019-02-07T13:20:36.666Z,8.63
2019-02-07T13:23:44.209Z,8.73
2019-02-07T13:26:59.592Z,10.67
2019-02-07T13:30:20.960Z,8.57
2019-02-07T13:33:39.191Z,11.33
2019-02-07T13:36:48.426Z,11.30
2019-02-07T13:39:57.303Z,9.70
2019-02-07T13:43:05.716Z,12.37
2019-02-07T13:46:13.729Z,9.80
2019-02-07T13:49:31.801Z,6.70
2019-02-07T13:52:40.132Z,9.10
2019-02-07T13:55:55.140Z,9.73
2019-02-07T13:59:07.298Z,9.73
2019-02-07T14:02:18.188Z,10.10
2019-02-07T14:05:42.689Z,10.87
2019-02-07T14:08:50.451Z,11.27
2019-02-07T14:12:11.683Z,12.33
2019-02-07T14:15:20.955Z,10.23
2019-02-07T14:18:26.297Z,8.77
2019-02-07T14:21:48.090Z,8.87
2019-02-07T14:25:06.102Z,11.07
2019-02-07T14:28:15.451Z,11.20
2019-02-07T14:31:33.695Z,11.23
2019-02-07T14:34:58.070Z,10.97
2019-02-07T14:38:06.068Z,11.97
2019-02-07T14:41:15.544Z,11.07
2019-02-07T14:44:17.982Z,8.60
2019-02-07T14:47:08.139Z,11.47
2019-02-07T14:49:58.711Z,9.07
2019-02-07T14:52:48.824Z,10.70
2019-02-07T14:55:39.252Z,11.97
2019-02-07T14:58:29.712Z,10.10
2019-02-07T15:01:20.004Z,11.37
2019-02-07T15:04:10.741Z,11.37
2019-02-07T15:07:01.186Z,10.73
2019-02-07T15:09:52.208Z,12.53
2019-02-07T15:12:42.722Z,8.80
2019-02-07T15:15:33.172Z,9.23
2019-02-07T15:18:23.354Z,12.87
2019-02-07T15:21:13.778Z,9.60
2019-02-07T15:24:04.183Z,10.40
2019-02-07T15:26:54.987Z,11.67
2019-02-07T15:29:46.427Z,12.40
2019-02-07T15:32:37.103Z,13.93
2019-02-07T15:35:30.975Z,11.27
2019-02-07T15:38:21.819Z,11.00
2019-02-07T15:41:12.125Z,10.00
2019-02-07T15:44:02.997Z,8.57
2019-02-07T15:46:53.521Z,9.20
2019-02-07T15:49:43.792Z,9.87
2019-02-07T15:52:34.367Z,8.47
2019-02-07T15:55:25.043Z,10.77
2019-02-07T15:58:15.589Z,9.43
2019-02-07T16:01:14.561Z,8.07
2019-02-07T16:04:17.718Z,8.70
2019-02-07T16:07:08.364Z,8.63
2019-02-07T16:09:58.854Z,9.50
2019-02-07T16:12:49.554Z,9.90
2019-02-07T16:15:39.932Z,11.17
2019-02-07T16:18:30.833Z,11.17
2019-02-07T16:21:21.183Z,10.83
2019-02-07T16:24:11.647Z,9.00
2019-02-07T16:27:02.096Z,9.37
2019-02-07T16:29:52.649Z,9.63
2019-02-07T16:32:43.032Z,8.17
2019-02-07T16:35:33.486Z,10.07
2019-02-07T16:38:24.069Z,8.80
2019-02-07T16:41:14.363Z,8.63
2019-02-07T16:44:04.723Z,9.40
2019-02-07T16:46:55.407Z,9.13
2019-02-07T16:49:45.852Z,8.63
2019-02-07T16:52:36.231Z,8.77
2019-02-07T16:55:26.502Z,12.17
2019-02-07T16:58:17.829Z,8.90
2019-02-07T17:01:08.447Z,8.53
2019-02-07T17:03:59.315Z,9.63
2019-02-07T17:06:49.773Z,8.97
2019-02-07T17:09:42.902Z,9.43
2019-02-07T17:12:33.406Z,11.17
2019-02-07T17:15:23.855Z,9.97
2019-02-07T17:18:14.419Z,9.70
2019-02-07T17:21:11.809Z,9.20
2019-02-07T17:23:58.844Z,10.30
2019-02-07T17:26:49.629Z,7.13
2019-02-07T17:29:40.241Z,10.13
2019-02-07T17:32:30.726Z,6.83
2019-02-07T17:35:21.130Z,7.43
2019-02-07T17:38:11.518Z,12.63
2019-02-07T17:41:01.976Z,8.27
2019-02-07T17:43:52.479Z,8.50
2019-02-07T17:46:42.606Z,9.27
2019-02-07T17:49:32.759Z,9.30
2019-02-07T17:52:23.140Z,7.33
2019-02-07T17:55:16.247Z,6.97
2019-02-07T17:58:07.300Z,8.50
2019-02-07T18:01:02.212Z,10.37
2019-02-07T18:03:52.830Z,10.77
2019-02-07T18:06:43.240Z,8.90
2019-02-07T18:09:33.495Z,8.10
2019-02-07T18:12:24.083Z,8.30
2019-02-07T18:15:14.709Z,8.90
2019-02-07T18:18:05.739Z,8.43
2019-02-07T18:20:55.826Z,10.03
2019-02-07T18:23:45.962Z,7.07
2019-02-07T18:26:36.369Z,7.20
2019-02-07T18:29:26.815Z,7.63
2019-02-07T18:32:17.081Z,6.63
2019-02-07T18:35:07.870Z,6.97
2019-02-07T18:37:58.829Z,8.67
2019-02-07T18:40:49.407Z,9.07
2019-02-07T18:43:40.010Z,8.70
2019-02-07T18:46:30.456Z,8.27
2019-02-07T18:49:20.969Z,11.37
2019-02-07T18:52:16.046Z,8.80
2019-02-07T18:55:07.760Z,8.37
2019-02-07T18:57:58.177Z,9.23
2019-02-07T19:00:48.401Z,8.43
2019-02-07T19:03:38.624Z,10.83
2019-02-07T19:06:29.227Z,10.60
2019-02-07T19:09:19.496Z,8.40
2019-02-07T19:12:10.021Z,11.80
2019-02-07T19:15:00.634Z,8.40
2019-02-07T19:17:50.991Z,13.37
2019-02-07T19:20:41.266Z,10.90
2019-02-07T19:23:31.806Z,9.50
2019-02-07T19:26:22.683Z,9.27
2019-02-07T19:29:13.301Z,10.33
2019-02-07T19:32:03.623Z,13.47
2019-02-07T19:34:53.727Z,12.37
2019-02-07T19:37:43.888Z,8.90
2019-02-07T19:40:34.232Z,13.13
2019-02-07T19:43:24.685Z,13.63
2019-02-07T19:46:14.943Z,11.47
2019-02-07T19:49:07.051Z,12.27
2019-02-07T19:52:07.690Z,8.03
2019-02-07T19:54:49.299Z,7.17
2019-02-07T19:57:39.462Z,9.67
2019-02-07T20:00:31.246Z,9.13
2019-02-07T20:03:21.693Z,10.53
2019-02-07T20:06:12.346Z,10.30
2019-02-07T20:09:03.879Z,10.60
2019-02-07T20:11:55.498Z,8.33
2019-02-07T20:14:46.107Z,9.87
2019-02-07T20:17:36.851Z,8.63
2019-02-07T20:20:26.988Z,14.00
2019-02-07T20:23:17.143Z,8.33
2019-02-07T20:26:07.566Z,8.90
2019-02-07T20:28:58.027Z,9.00
2019-02-07T20:31:51.957Z,11.53
2019-02-07T20:34:42.470Z,10.37
2019-02-07T20:37:33.030Z,9.97
2019-02-07T20:40:25.661Z,10.40
2019-02-07T20:43:15.949Z,8.17
2019-02-07T20:46:06.528Z,9.23
2019-02-07T20:48:56.624Z,9.40
2019-02-07T20:51:47.186Z,12.33
2019-02-07T20:54:37.782Z,10.20
2019-02-07T20:57:28.230Z,11.83
2019-02-07T21:00:21.944Z,10.80
2019-02-07T21:03:12.655Z,11.07
2019-02-07T21:06:02.871Z,12.23
2019-02-07T21:08:54.882Z,10.17
2019-02-07T21:11:45.321Z,7.97
2019-02-07T21:14:36.129Z,10.83
2019-02-07T21:17:26.402Z,7.33
2019-02-07T21:20:19.220Z,11.10
2019-02-07T21:23:09.433Z,7.87
2019-02-07T21:25:59.585Z,8.47
2019-02-07T21:28:49.798Z,6.10
2019-02-07T21:31:40.254Z,6.33
2019-02-07T21:34:30.438Z,9.33
2019-02-07T21:37:20.946Z,7.90
2019-02-07T21:40:13.414Z,7.50
2019-02-07T21:43:03.966Z,7.73
2019-02-07T21:45:54.581Z,7.67
2019-02-07T21:48:45.042Z,8.47
2019-02-07T21:51:35.553Z,8.83
2019-02-07T21:54:26.002Z,6.57
2019-02-07T21:57:16.357Z,8.83
2019-02-07T22:00:10.445Z,10.47
2019-02-07T22:03:00.800Z,7.10
2019-02-07T22:05:51.309Z,9.10
2019-02-07T22:08:41.691Z,9.83
2019-02-07T22:11:32.198Z,8.63
2019-02-07T22:14:22.331Z,9.90
2019-02-07T22:17:12.978Z,7.80
2019-02-07T22:20:03.507Z,6.30
2019-02-07T22:22:53.988Z,7.87
2019-02-07T22:25:44.534Z,8.57
2019-02-07T22:28:35.139Z,11.73
2019-02-07T22:31:25.496Z,6.93
2019-02-07T22:34:15.936Z,8.57
2019-02-07T22:37:06.106Z,8.23
2019-02-07T22:39:56.581Z,7.50
2019-02-07T22:42:48.155Z,8.23
2019-02-07T22:45:38.780Z,7.30
2019-02-07T22:48:29.250Z,10.60
2019-02-07T22:51:19.872Z,7.97
2019-02-07T22:54:10.421Z,9.87
2019-02-07T22:57:01.119Z,10.00
2019-02-07T22:59:51.797Z,11.80
2019-02-07T23:02:42.040Z,8.90
2019-02-07T23:05:32.358Z,6.17
2019-02-07T23:08:23.078Z,9.07
2019-02-07T23:11:13.506Z,7.07
2019-02-07T23:14:04.053Z,7.83
2019-02-07T23:16:54.389Z,6.10
2019-02-07T23:19:44.727Z,5.47
2019-02-07T23:22:35.371Z,6.90
2019-02-07T23:25:26.228Z,6.97
2019-02-07T23:28:16.672Z,6.97
2019-02-07T23:31:08.921Z,6.53
2019-02-07T23:33:59.606Z,5.20
2019-02-07T23:36:50.239Z,8.50
2019-02-07T23:39:40.383Z,6.87
2019-02-07T23:42:30.601Z,6.00
2019-02-07T23:45:21.096Z,8.00
2019-02-07T23:48:11.539Z,8.20
2019-02-07T23:51:02.044Z,7.33
2019-02-07T23:53:52.457Z,6.60
2019-02-07T23:56:42.811Z,6.77
2019-02-07T23:59:33.136Z,10.13
